Time;durP1;ratioP1;P1;durP2;ratioP2;P2;SDS_P1;SDS_P2;PMS_P1;PMS_P2;Temp;Humidity;BMP_temperature;BMP_pressure;BME280_temperature;BME280_humidity;BME280_pressure;Samples;Min_cycle;Max_cycle;Signal;HPM_P1;HPM_P2
2022/08/13 00:01:49;;;;;;;5.80;4.47;;;;;;;21.14;86.69;97106.09;5028497;28;20025;-83
2022/08/13 00:04:16;;;;;;;5.20;4.70;;;;;;;21.17;87.32;97106.59;5018727;28;20025;-83
2022/08/13 00:09:13;;;;;;;7.03;4.97;;;;;;;21.12;87.80;97103.56;5034007;28;20484;-82
2022/08/13 00:14:31;;;;;;;9.73;4.90;;;;;;;21.15;87.68;97102.38;5032337;28;20052;-83
2022/08/13 00:16:57;;;;;;;4.90;4.30;;;;;;;21.16;88.41;97109.53;5020443;28;20096;-83
2022/08/13 00:19:26;;;;;;;5.72;5.00;;;;;;;21.03;88.82;97089.09;5036293;28;20029;-83
2022/08/13 00:21:53;;;;;;;8.43;5.15;;;;;;;21.03;89.44;97089.09;5011893;28;20108;-83
2022/08/13 00:24:19;;;;;;;5.70;4.82;;;;;;;21.07;89.66;97090.44;5011540;28;20416;-84
2022/08/13 00:26:44;;;;;;;7.35;5.10;;;;;;;21.02;89.73;97095.53;5028859;28;20029;-82
2022/08/13 00:29:10;;;;;;;5.65;4.95;;;;;;;20.91;90.82;97081.44;5017552;28;20045;-83
2022/08/13 00:31:37;;;;;;;5.82;5.28;;;;;;;20.87;89.68;97078.22;5027586;28;20389;-83
2022/08/13 00:34:03;;;;;;;7.95;5.47;;;;;;;20.95;89.36;97085.50;5011558;28;20032;-83
2022/08/13 00:36:32;;;;;;;6.78;5.18;;;;;;;20.95;89.55;97082.78;5011610;28;20044;-83
2022/08/13 00:38:58;;;;;;;7.47;5.57;;;;;;;20.96;89.34;97079.91;5015490;28;20108;-83
2022/08/13 00:41:39;;;;;;;6.68;5.50;;;;;;;21.10;88.84;97085.72;5040751;28;20399;-83
2022/08/13 00:44:08;;;;;;;8.70;6.27;;;;;;;21.05;88.54;97081.59;5013665;28;20607;-83
2022/08/13 00:46:34;;;;;;;8.65;5.13;;;;;;;20.96;88.62;97073.63;5031624;28;20033;-83
2022/08/13 00:49:03;;;;;;;8.40;4.80;;;;;;;21.03;88.70;97074.66;5041989;28;20529;-84
2022/08/13 00:51:30;;;;;;;7.20;4.80;;;;;;;20.82;90.48;97064.28;5017010;28;20044;-83
2022/08/13 00:53:58;;;;;;;9.27;5.30;;;;;;;20.83;90.27;97065.97;5011224;28;20683;-83
2022/08/13 00:56:25;;;;;;;7.35;5.07;;;;;;;20.84;89.61;97069.53;5011798;28;20025;-83
2022/08/13 00:58:51;;;;;;;6.75;5.60;;;;;;;20.86;89.41;97059.34;5047129;28;20107;-82
2022/08/13 01:01:25;;;;;;;9.02;5.13;;;;;;;20.88;87.59;97066.34;5026797;28;20029;-83
2022/08/13 01:03:51;;;;;;;7.43;5.68;;;;;;;20.83;86.83;97071.41;5031625;28;20200;-82
2022/08/13 01:06:18;;;;;;;6.57;5.68;;;;;;;20.75;87.29;97068.72;5026498;28;20057;-83
2022/08/13 01:08:44;;;;;;;7.57;5.97;;;;;;;20.75;88.01;97074.16;5015029;28;20033;-83
2022/08/13 01:11:11;;;;;;;9.02;5.93;;;;;;;20.79;88.06;97072.78;5027219;28;20489;-83
2022/08/13 01:13:40;;;;;;;14.05;6.03;;;;;;;20.82;88.36;97071.59;5012811;28;20037;-83
2022/08/13 01:16:13;;;;;;;11.77;5.30;;;;;;;20.87;87.19;97069.22;5036906;28;20037;-84
2022/08/13 01:18:43;;;;;;;8.65;5.20;;;;;;;20.81;88.30;97065.31;5027569;28;20028;-84
2022/08/13 01:21:13;;;;;;;9.90;5.85;;;;;;;20.73;89.41;97064.47;5020405;28;20108;-84
2022/08/13 01:23:39;;;;;;;7.50;5.60;;;;;;;20.58;90.26;97039.81;5027047;28;20124;-83
2022/08/13 01:26:05;;;;;;;8.25;5.72;;;;;;;20.73;90.15;97059.03;5018847;28;20378;-84
2022/08/13 01:28:30;;;;;;;6.93;5.85;;;;;;;20.71;90.05;97053.75;5011886;28;20102;-82
2022/08/13 01:30:58;;;;;;;7.10;5.63;;;;;;;20.69;89.88;97055.78;5038174;28;20107;-83
2022/08/13 01:33:24;;;;;;;7.95;5.20;;;;;;;20.65;89.83;97049.00;5022338;28;20029;-83
2022/08/13 01:35:51;;;;;;;7.05;5.88;;;;;;;20.69;89.42;97058.50;5013626;28;20029;-83
2022/08/13 01:38:16;;;;;;;14.57;6.63;;;;;;;20.67;90.08;97048.84;5023116;28;20025;-82
2022/08/13 01:40:44;;;;;;;8.25;5.50;;;;;;;20.58;90.19;97045.25;5017624;28;20071;-83
2022/08/13 01:43:10;;;;;;;10.35;5.07;;;;;;;20.74;89.64;97042.53;5045348;28;20081;-83
2022/08/13 01:45:37;;;;;;;7.43;6.43;;;;;;;20.80;88.39;97041.84;5021929;28;20412;-84
2022/08/13 01:50:47;;;;;;;8.30;6.15;;;;;;;20.86;88.50;97053.91;5046611;28;20531;-83
2022/08/13 01:53:16;;;;;;;8.70;5.43;;;;;;;20.77;89.53;97050.34;5029805;28;20033;-83
2022/08/13 01:55:49;;;;;;;6.43;5.47;;;;;;;20.86;88.71;97053.91;5029861;28;20040;-83
2022/08/13 01:58:25;;;;;;;9.15;5.43;;;;;;;20.87;88.48;97044.72;5020364;28;20044;-84
2022/08/13 02:01:00;;;;;;;10.10;5.90;;;;;;;20.80;89.19;97044.56;5036707;28;20064;-82
2022/08/13 02:03:26;;;;;;;6.45;5.72;;;;;;;20.87;89.42;97042.88;5022109;28;20548;-83
2022/08/13 02:05:52;;;;;;;9.75;5.68;;;;;;;20.80;89.33;97039.13;5044727;28;20132;-83
2022/08/13 02:08:22;;;;;;;10.07;5.07;;;;;;;20.64;91.67;97041.84;5030158;28;20108;-83
2022/08/13 02:10:51;;;;;;;11.07;6.25;;;;;;;20.59;92.76;97035.22;5012473;28;20029;-83
2022/08/13 02:13:19;;;;;;;8.82;5.82;;;;;;;20.56;93.45;97036.41;5016656;28;20053;-83
2022/08/13 02:15:49;;;;;;;11.35;5.60;;;;;;;20.63;93.53;97042.88;5042751;28;20033;-83
2022/08/13 02:18:17;;;;;;;11.57;6.00;;;;;;;20.72;92.31;97041.88;5116244;28;20033;-84
2022/08/13 02:20:48;;;;;;;7.88;5.97;;;;;;;20.56;94.34;97044.56;5012082;28;20529;-83
2022/08/13 02:23:25;;;;;;;14.55;7.35;;;;;;;20.53;94.81;97042.19;5026724;28;20109;-83
2022/08/13 02:25:50;;;;;;;12.30;6.13;;;;;;;20.46;94.39;97030.28;5027629;28;20145;-83
2022/08/13 02:28:19;;;;;;;7.35;6.18;;;;;;;20.45;95.06;97028.59;5027866;28;20025;-83
2022/08/13 02:30:46;;;;;;;7.10;5.50;;;;;;;20.38;96.36;97038.44;5010166;28;20763;-83
2022/08/13 02:33:12;;;;;;;7.97;5.30;;;;;;;20.45;96.14;97034.03;5009806;28;20039;-82
2022/08/13 02:35:38;;;;;;;8.15;5.40;;;;;;;20.34;96.86;97047.94;5009866;28;20065;-85
2022/08/13 02:38:04;;;;;;;6.18;5.57;;;;;;;20.38;96.97;97049.31;5028066;28;20068;-84
2022/08/13 02:43:16;;;;;;;10.32;6.20;;;;;;;20.31;97.91;97046.41;5018362;28;20044;-84
2022/08/13 02:45:44;;;;;;;7.30;5.28;;;;;;;20.11;99.02;97046.84;5017166;28;20020;-84
2022/08/13 02:48:10;;;;;;;6.72;6.03;;;;;;;19.95;100.00;97050.38;5043501;28;20044;-84
2022/08/13 02:50:41;;;;;;;7.53;5.97;;;;;;;19.96;100.00;97054.81;5016659;28;20029;-83
2022/08/13 02:53:13;;;;;;;5.72;5.13;;;;;;;19.97;100.00;97051.91;5033428;28;20033;-83
2022/08/13 02:55:41;;;;;;;7.40;5.72;;;;;;;19.90;100.00;97056.28;5032872;28;20039;-84
2022/08/13 02:58:07;;;;;;;9.63;5.88;;;;;;;19.84;100.00;97048.81;5049248;28;20021;-83
2022/08/13 03:00:32;;;;;;;7.47;6.22;;;;;;;19.81;100.00;97059.16;5041145;28;20077;-84
2022/08/13 03:02:59;;;;;;;7.15;6.45;;;;;;;19.84;100.00;97056.94;5048930;28;20033;-82
2022/08/13 03:05:25;;;;;;;11.57;6.05;;;;;;;19.84;100.00;97054.22;5044824;28;20124;-83
2022/08/13 03:07:50;;;;;;;7.47;6.65;;;;;;;19.93;100.00;97055.97;5028574;28;20102;-84
2022/08/13 03:10:18;;;;;;;9.65;5.97;;;;;;;19.99;100.00;97063.44;5048672;28;20081;-83
2022/08/13 03:12:49;;;;;;;7.57;5.45;;;;;;;19.98;100.00;97063.63;5026205;28;20480;-83
2022/08/13 03:15:16;;;;;;;7.22;5.82;;;;;;;19.99;100.00;97066.16;5023198;28;20037;-83
2022/08/13 03:17:43;;;;;;;6.63;5.72;;;;;;;19.88;99.57;97058.31;5032251;28;20039;-82
2022/08/13 03:20:15;;;;;;;8.15;6.22;;;;;;;19.87;99.24;97062.03;5032207;28;20051;-84
2022/08/13 03:22:51;;;;;;;6.57;4.95;;;;;;;19.90;98.69;97066.31;5024889;28;20565;-83
2022/08/13 03:25:18;;;;;;;6.43;5.30;;;;;;;19.81;98.40;97067.31;5032055;28;20052;-85
2022/08/13 03:27:45;;;;;;;8.48;6.00;;;;;;;19.83;98.73;97059.84;5034710;28;20104;-82
2022/08/13 03:30:11;;;;;;;6.40;5.80;;;;;;;19.73;99.70;97049.13;5036998;28;20403;-83
2022/08/13 03:32:42;;;;;;;6.80;5.38;;;;;;;19.73;100.00;97056.41;5037200;28;20116;-84
2022/08/13 03:35:16;;;;;;;9.13;6.20;;;;;;;19.81;99.18;97057.28;5011974;28;20036;-83
2022/08/13 03:37:45;;;;;;;7.43;6.15;;;;;;;19.86;97.86;97056.78;5034549;28;20033;-83
2022/08/13 03:40:11;;;;;;;7.88;5.47;;;;;;;19.97;97.58;97065.47;5048787;28;20104;-84
2022/08/13 03:42:40;;;;;;;7.53;5.20;;;;;;;20.00;97.26;97062.44;5040435;28;20089;-83
2022/08/13 03:45:08;;;;;;;6.88;5.55;;;;;;;20.06;96.20;97060.91;5048556;28;20089;-82
2022/08/13 03:47:34;;;;;;;6.68;5.20;;;;;;;20.15;95.42;97070.78;5031952;28;20031;-83
2022/08/13 03:50:01;;;;;;;10.52;6.25;;;;;;;20.20;94.46;97071.16;5048498;28;20060;-83
2022/08/13 03:52:30;;;;;;;9.43;6.03;;;;;;;20.27;94.50;97074.91;5031671;28;20048;-84
2022/08/13 03:54:57;;;;;;;11.32;6.68;;;;;;;20.39;94.06;97068.19;5025096;28;20109;-83
2022/08/13 03:57:23;;;;;;;8.15;7.35;;;;;;;20.41;93.86;97057.97;5022214;28;20033;-83
2022/08/13 03:59:49;;;;;;;8.95;6.05;;;;;;;20.49;93.94;97065.28;5040115;28;20081;-83
2022/08/13 04:02:16;;;;;;;9.48;7.07;;;;;;;20.48;96.09;97069.88;5048385;28;20449;-83
2022/08/13 04:04:46;;;;;;;10.73;7.00;;;;;;;20.50;99.41;97073.28;5026915;28;20031;-83
2022/08/13 04:07:18;;;;;;;10.57;7.28;;;;;;;20.57;98.82;97067.16;5045253;28;20112;-82
2022/08/13 04:09:45;;;;;;;9.25;7.53;;;;;;;20.55;99.54;97065.47;5048358;28;20029;-82
2022/08/13 04:12:12;;;;;;;13.63;8.05;;;;;;;20.46;99.72;97068.34;5014950;28;20089;-81
2022/08/13 04:14:43;;;;;;;8.55;7.63;;;;;;;20.60;98.49;97067.69;5024078;28;20052;-83
2022/08/13 04:17:10;;;;;;;12.35;6.90;;;;;;;20.68;97.88;97073.13;5048266;28;20044;-83
2022/08/13 04:19:42;;;;;;;11.45;7.85;;;;;;;20.69;97.95;97074.81;5003971;28;20390;-83
2022/08/13 04:22:13;;;;;;;13.02;7.75;;;;;;;20.76;97.66;97070.41;5019364;28;20021;-83
2022/08/13 04:24:39;;;;;;;16.02;8.10;;;;;;;20.88;96.63;97066.34;5032470;28;20405;-84
2022/08/13 04:27:05;;;;;;;12.60;7.38;;;;;;;20.90;96.62;97069.72;5011569;28;20040;-83
2022/08/13 04:29:31;;;;;;;12.40;8.07;;;;;;;20.75;97.85;97067.84;5030312;28;20154;-84
2022/08/13 04:31:57;;;;;;;16.83;8.13;;;;;;;20.69;98.33;97060.38;5013135;28;20044;-84
2022/08/13 04:34:28;;;;;;;14.18;8.50;;;;;;;20.72;98.51;97069.03;5020682;28;20029;-84
2022/08/13 04:36:56;;;;;;;12.05;7.53;;;;;;;20.80;97.45;97071.75;5017620;28;20122;-83
2022/08/13 04:39:24;;;;;;;10.73;7.80;;;;;;;20.83;97.48;97081.44;5037157;28;20033;-82
2022/08/13 04:41:50;;;;;;;12.23;9.27;;;;;;;20.76;98.19;97069.56;5035234;28;20052;-84
2022/08/13 04:44:16;;;;;;;17.48;8.55;;;;;;;20.79;98.07;97072.78;5019605;28;20487;-85
2022/08/13 04:46:42;;;;;;;12.95;8.65;;;;;;;20.92;94.21;97070.38;5018828;28;20029;-82
2022/08/13 04:49:11;;;;;;;6.65;5.38;;;;;;;20.98;91.44;97077.84;5019950;28;20108;-85
2022/08/13 04:51:37;;;;;;;6.70;5.80;;;;;;;20.93;90.26;97069.38;5022133;28;20127;-84
2022/08/13 04:54:03;;;;;;;8.50;6.22;;;;;;;20.93;90.30;97074.81;5022612;28;20108;-84
2022/08/13 04:56:29;;;;;;;7.15;5.90;;;;;;;21.04;89.86;97079.06;5039244;28;20033;-83
2022/08/13 04:58:55;;;;;;;8.02;5.90;;;;;;;20.98;91.66;97074.28;5017861;28;20086;-83
2022/08/13 05:01:21;;;;;;;8.63;6.00;;;;;;;20.86;93.73;97057.47;5011438;28;20036;-83
2022/08/13 05:03:47;;;;;;;9.90;6.18;;;;;;;21.01;92.97;97073.97;5031134;28;20414;-83
2022/08/13 05:06:18;;;;;;;12.93;6.57;;;;;;;21.02;92.68;97076.50;5022652;28;20113;-83
2022/08/13 05:08:45;;;;;;;11.55;7.80;;;;;;;21.06;93.92;97077.88;5015193;28;20021;-83
2022/08/13 05:11:12;;;;;;;9.70;6.10;;;;;;;21.06;94.09;97071.56;5026518;28;20456;-84
2022/08/13 05:13:39;;;;;;;10.52;6.82;;;;;;;21.11;93.91;97073.81;5040865;28;20085;-84
2022/08/13 05:16:07;;;;;;;17.15;6.22;;;;;;;21.14;93.47;97078.91;5043947;28;20082;-83
2022/08/13 05:18:34;;;;;;;15.25;7.43;;;;;;;21.00;94.95;97078.56;5010689;28;20068;-83
2022/08/13 05:21:03;;;;;;;7.80;6.70;;;;;;;20.96;95.48;97066.31;5014890;28;20033;-82
2022/08/13 05:23:30;;;;;;;16.33;7.35;;;;;;;20.98;95.78;97075.16;5015152;28;20033;-83
2022/08/13 05:25:59;;;;;;;9.80;6.63;;;;;;;20.88;96.41;97060.03;5023635;28;20054;-83
2022/08/13 05:28:25;;;;;;;12.85;6.20;;;;;;;20.97;96.98;97072.59;5027498;28;20025;-83
2022/08/13 05:30:51;;;;;;;13.85;7.50;;;;;;;20.93;99.26;97072.09;5019593;28;20022;-83
2022/08/13 05:33:19;;;;;;;19.50;8.10;;;;;;;20.83;100.00;97078.72;5018751;28;20408;-83
2022/08/13 05:35:47;;;;;;;12.30;7.75;;;;;;;20.40;100.00;97069.84;5020899;28;20496;-83
2022/08/13 05:38:15;;;;;;;21.98;9.20;;;;;;;20.12;100.00;97064.88;5011470;28;20017;-82
2022/08/13 05:40:41;;;;;;;25.75;10.95;;;;;;;19.95;100.00;97086.53;5036697;28;20029;-82
2022/08/13 05:43:13;;;;;;;13.43;8.93;;;;;;;19.59;100.00;97079.59;5106629;27;20530;-81
2022/08/13 05:45:39;;;;;;;50.95;30.45;;;;;;;19.48;100.00;97082.56;5036041;28;20426;-81
2022/08/13 05:48:04;;;;;;;29.65;10.48;;;;;;;19.49;100.00;97095.13;5012825;28;20029;-80
2022/08/13 05:50:31;;;;;;;29.15;11.05;;;;;;;19.28;100.00;97081.06;5030825;28;20021;-80
2022/08/13 05:53:07;;;;;;;20.10;9.25;;;;;;;18.88;100.00;97085.22;5050719;28;20028;-81
2022/08/13 05:55:34;;;;;;;13.30;8.88;;;;;;;18.91;100.00;97092.19;5046941;28;20025;-78
2022/08/13 05:58:00;;;;;;;43.17;21.48;;;;;;;18.87;100.00;97088.94;5030804;28;20412;-79
2022/08/13 06:03:25;;;;;;;3.30;1.83;;;;;;;18.74;100.00;97107.44;5042258;28;20132;-80
2022/08/13 06:06:03;;;;;;;21.00;2.63;;;;;;;18.72;100.00;97101.34;5025764;28;20056;-81
2022/08/13 06:08:35;;;;;;;1.20;0.68;;;;;;;18.85;100.00;97101.78;5009843;28;20082;-80
2022/08/13 06:11:03;;;;;;;0.30;0.30;;;;;;;19.00;100.00;97102.06;5016461;28;20052;-81
2022/08/13 06:13:30;;;;;;;0.75;0.50;;;;;;;19.06;100.00;97097.88;5041509;28;20025;-80
2022/08/13 06:16:00;;;;;;;1.63;1.30;;;;;;;19.13;100.00;97097.09;5031831;28;20040;-82
2022/08/13 06:18:31;;;;;;;1.73;1.17;;;;;;;19.27;100.00;97098.34;5044375;27;20061;-78
2022/08/13 06:20:59;;;;;;;1.35;0.80;;;;;;;19.48;100.00;97104.28;5035924;28;20033;-80
2022/08/13 06:23:27;;;;;;;0.85;0.63;;;;;;;19.59;100.00;97101.31;5032754;27;20098;-84
2022/08/13 06:25:54;;;;;;;0.68;0.57;;;;;;;19.67;100.00;97095.03;5019525;28;20075;-80
2022/08/13 06:28:22;;;;;;;1.35;0.80;;;;;;;19.56;100.00;97088.06;5013576;28;20477;-76
2022/08/13 06:30:51;;;;;;;3.40;1.30;;;;;;;19.57;100.00;97091.59;5019108;28;20148;-84
2022/08/13 06:33:21;;;;;;;2.75;1.02;;;;;;;19.53;100.00;97090.25;5015533;28;20120;-81
2022/08/13 06:35:59;;;;;;;0.32;0.32;;;;;;;19.86;100.00;97102.94;5043166;28;20416;-88
2022/08/13 06:38:30;;;;;;;1.05;0.68;;;;;;;19.81;100.00;97084.41;5027669;28;20153;-84
2022/08/13 06:41:00;;;;;;;1.60;0.95;;;;;;;19.96;100.00;97112.66;5037646;28;20425;-79
2022/08/13 06:43:31;;;;;;;2.00;0.65;;;;;;;20.06;100.00;97098.13;5041857;28;20029;-80
2022/08/13 06:45:59;;;;;;;0.73;0.73;;;;;;;20.06;100.00;97098.94;5031269;28;20496;-82
2022/08/13 06:48:27;;;;;;;1.02;0.93;;;;;;;20.16;100.00;97098.81;5015300;28;20410;-82
2022/08/13 06:50:53;;;;;;;0.50;0.40;;;;;;;20.24;100.00;97096.13;5020838;28;20711;-82
2022/08/13 06:53:19;;;;;;;2.22;0.93;;;;;;;20.34;100.00;97099.56;5032710;28;20067;-82
2022/08/13 06:55:48;;;;;;;0.45;0.45;;;;;;;20.38;100.00;97092.78;5019352;28;20037;-82
2022/08/13 06:58:14;;;;;;;0.73;0.73;;;;;;;20.46;100.00;97111.81;5053034;27;20052;-83
2022/08/13 07:00:41;;;;;;;0.77;0.55;;;;;;;20.45;100.00;97099.25;5061950;27;20025;-81
2022/08/13 07:03:09;;;;;;;0.50;0.40;;;;;;;20.44;100.00;97102.97;5059384;28;20395;-81
2022/08/13 07:05:41;;;;;;;2.03;1.05;;;;;;;20.47;100.00;97102.66;5023687;28;20044;-82
2022/08/13 07:08:08;;;;;;;1.08;0.40;;;;;;;20.63;100.00;97096.38;5035419;28;20483;-82
2022/08/13 07:10:35;;;;;;;1.75;0.85;;;;;;;20.74;100.00;97101.47;5027365;28;20124;-83
2022/08/13 07:13:02;;;;;;;0.93;0.50;;;;;;;20.84;100.00;97100.31;5023971;28;20571;-81
2022/08/13 07:15:29;;;;;;;3.30;1.27;;;;;;;20.91;100.00;97104.06;5020663;28;20114;-82
2022/08/13 07:17:56;;;;;;;0.95;0.88;;;;;;;21.10;100.00;97107.47;5021551;28;20065;-82
2022/08/13 07:20:23;;;;;;;0.70;0.45;;;;;;;21.20;100.00;97106.25;5023589;28;20068;-82
2022/08/13 07:22:49;;;;;;;0.65;0.65;;;;;;;21.45;100.00;97107.94;5035270;28;20451;-82
2022/08/13 07:25:16;;;;;;;0.77;0.77;;;;;;;21.64;100.00;97112.16;5036478;28;20068;-82
2022/08/13 07:27:44;;;;;;;0.98;0.85;;;;;;;21.80;100.00;97112.09;5021828;28;20033;-82
2022/08/13 07:30:14;;;;;;;2.83;1.08;;;;;;;21.89;100.00;97113.81;5038263;27;20025;-82
2022/08/13 07:32:41;;;;;;;1.02;0.90;;;;;;;22.05;100.00;97105.56;5032405;28;20026;-82
2022/08/13 07:35:08;;;;;;;3.30;1.58;;;;;;;22.28;100.00;97108.34;5015823;28;20040;-82
2022/08/13 07:37:39;;;;;;;1.98;1.10;;;;;;;22.54;100.00;97102.56;5036843;28;20492;-82
2022/08/13 07:40:08;;;;;;;3.30;1.67;;;;;;;22.79;100.00;97104.16;5034966;28;20053;-82
2022/08/13 07:42:38;;;;;;;0.85;0.60;;;;;;;22.83;100.00;97097.28;5016753;28;20029;-82
2022/08/13 07:45:05;;;;;;;2.38;1.33;;;;;;;22.93;100.00;97086.97;5033897;28;20846;-82
2022/08/13 07:47:31;;;;;;;1.17;1.05;;;;;;;23.14;100.00;97099.91;5036403;27;20013;-82
2022/08/13 07:50:01;;;;;;;2.90;1.45;;;;;;;23.08;100.00;97101.50;5034437;27;20026;-82
2022/08/13 07:52:28;;;;;;;1.20;0.90;;;;;;;23.21;100.00;97098.16;5034266;28;20025;-82
2022/08/13 07:54:53;;;;;;;0.43;0.43;;;;;;;23.29;100.00;97098.06;5016141;28;20113;-82
2022/08/13 07:57:19;;;;;;;2.35;1.13;;;;;;;23.21;100.00;97096.28;5038139;27;20062;-82
2022/08/13 07:59:44;;;;;;;3.78;1.27;;;;;;;23.38;100.00;97093.41;5039659;28;20029;-83
2022/08/13 08:02:13;;;;;;;1.83;1.33;;;;;;;23.38;100.00;97102.41;5039564;28;20032;-82
2022/08/13 08:04:41;;;;;;;14.60;10.88;;;;;;;23.18;100.00;97093.91;5026747;28;20029;-81
2022/08/13 08:07:08;;;;;;;17.35;10.50;;;;;;;23.23;100.00;97109.72;5044815;28;20127;-82
2022/08/13 08:09:34;;;;;;;14.57;10.90;;;;;;;23.33;100.00;97104.00;5013111;28;20476;-82
2022/08/13 08:14:45;;;;;;;13.93;9.82;;;;;;;23.59;100.00;97107.22;5028669;28;20040;-82
2022/08/13 08:17:11;;;;;;;15.15;10.20;;;;;;;23.51;100.00;97097.19;5024179;28;20369;-82
2022/08/13 08:19:41;;;;;;;16.55;9.55;;;;;;;23.53;100.00;97091.56;5029561;28;20498;-84
2022/08/13 08:22:08;;;;;;;11.30;8.63;;;;;;;23.66;100.00;97094.47;5011250;28;20488;-83
2022/08/13 08:24:35;;;;;;;17.02;8.95;;;;;;;23.73;95.90;97093.56;5015510;28;20512;-82
2022/08/13 08:27:06;;;;;;;16.65;15.00;;;;;;;23.78;94.89;97090.25;5021413;28;20461;-83
2022/08/13 08:29:33;;;;;;;18.42;12.88;;;;;;;23.78;94.77;97094.88;5016979;28;20026;-83
2022/08/13 08:32:05;;;;;;;18.05;12.85;;;;;;;23.61;92.45;97091.47;5031008;28;20025;-82
2022/08/13 08:34:31;;;;;;;14.20;11.50;;;;;;;23.54;94.43;97101.44;5054364;28;20033;-84
2022/08/13 08:36:57;;;;;;;20.10;16.13;;;;;;;23.48;97.29;97088.53;5041337;28;20400;-83
2022/08/13 08:44:40;;;;;;;;;;;;;;;23.36;100.00;97093.56;5044347;28;20043;-82
2022/08/13 08:47:07;;;;;;;20.23;16.70;;;;;;;23.27;100.00;97091.97;5032140;28;19999;-83
2022/08/13 08:49:33;;;;;;;19.52;14.50;;;;;;;23.21;100.00;97082.63;5017725;28;20071;-83
2022/08/13 08:51:59;;;;;;;16.85;11.77;;;;;;;23.18;100.00;97091.19;5027678;28;20032;-84
2022/08/13 08:54:26;;;;;;;13.82;10.77;;;;;;;23.20;100.00;97094.56;5034883;28;20029;-83
2022/08/13 08:56:56;;;;;;;14.55;10.52;;;;;;;23.21;100.00;97090.81;5029382;28;20033;-85
2022/08/13 08:59:25;;;;;;;11.57;10.32;;;;;;;23.19;100.00;97086.59;5041120;28;20381;-83
2022/08/13 09:01:55;;;;;;;12.35;9.93;;;;;;;23.26;100.00;97087.53;5035894;28;20101;-83
2022/08/13 09:04:25;;;;;;;17.23;11.70;;;;;;;23.35;100.00;97096.50;5039773;28;20040;-84
2022/08/13 09:06:52;;;;;;;19.75;11.15;;;;;;;23.44;100.00;97088.03;5040382;28;20492;-83
2022/08/13 09:09:20;;;;;;;13.23;11.00;;;;;;;23.53;100.00;97099.75;5042285;28;20407;-82
2022/08/13 09:11:47;;;;;;;14.00;11.48;;;;;;;23.59;100.00;97093.56;5034453;28;20369;-82
2022/08/13 09:14:13;;;;;;;14.13;11.57;;;;;;;23.54;100.00;97093.25;5043640;28;20025;-82
2022/08/13 09:16:40;;;;;;;17.98;12.10;;;;;;;23.42;100.00;97083.81;5020016;28;20067;-82
2022/08/13 09:19:07;;;;;;;17.88;11.35;;;;;;;23.44;100.00;97095.41;5032239;27;20025;-81
2022/08/13 09:21:41;;;;;;;20.40;13.32;;;;;;;23.38;100.00;97091.50;5038930;28;20017;-83
2022/08/13 09:24:07;;;;;;;21.13;11.10;;;;;;;23.42;100.00;97092.84;5022273;28;20029;-83
2022/08/13 09:26:33;;;;;;;12.10;9.40;;;;;;;23.40;100.00;97096.81;5029552;28;20033;-82
2022/08/13 09:28:59;;;;;;;11.55;9.95;;;;;;;23.36;100.00;97090.84;5024575;28;20032;-83
2022/08/13 09:31:25;;;;;;;13.95;11.05;;;;;;;23.31;100.00;97095.16;5022171;28;20035;-82
2022/08/13 09:33:53;;;;;;;11.63;9.52;;;;;;;23.22;100.00;97092.50;5029771;28;20105;-82
2022/08/13 09:36:19;;;;;;;11.07;9.50;;;;;;;23.16;100.00;97082.31;5039106;28;20029;-82
2022/08/13 09:38:45;;;;;;;12.43;9.63;;;;;;;23.16;100.00;97087.78;5041716;28;20052;-83
2022/08/13 09:41:17;;;;;;;14.32;11.55;;;;;;;23.11;100.00;97083.91;5038631;28;20110;-84
2022/08/13 09:43:44;;;;;;;10.85;9.75;;;;;;;23.17;100.00;97091.34;5018002;28;20487;-85
2022/08/13 09:46:12;;;;;;;18.33;10.02;;;;;;;23.14;100.00;97087.13;5045551;28;20423;-85
2022/08/13 09:48:38;;;;;;;13.18;9.82;;;;;;;23.20;100.00;97093.72;5017653;28;20805;-85
2022/08/13 09:51:05;;;;;;;15.85;11.73;;;;;;;23.29;100.00;97086.31;5023324;28;20400;-85
2022/08/13 09:53:31;;;;;;;12.98;10.98;;;;;;;23.34;100.00;97081.16;5043994;28;20029;-83
2022/08/13 09:55:56;;;;;;;17.63;11.65;;;;;;;23.26;100.00;97087.53;5013429;28;20032;-83
2022/08/13 09:58:23;;;;;;;15.32;9.95;;;;;;;22.47;100.00;97098.88;5021578;28;20433;-84
2022/08/13 10:00:50;;;;;;;15.65;12.20;;;;;;;22.19;100.00;97108.56;5027151;28;20541;-82
2022/08/13 10:03:17;;;;;;;17.33;11.20;;;;;;;22.13;100.00;97105.53;5038028;28;20421;-82
2022/08/13 10:05:47;;;;;;;17.10;12.35;;;;;;;22.07;100.00;97111.69;5025941;28;20048;-81
2022/08/13 10:08:18;;;;;;;15.07;11.45;;;;;;;22.03;100.00;97110.34;5027248;28;20088;-82
2022/08/13 10:10:50;;;;;;;16.27;12.27;;;;;;;21.93;100.00;97103.41;5037701;28;20081;-82
2022/08/13 10:13:15;;;;;;;54.50;34.60;;;;;;;21.94;100.00;97108.66;5047049;28;20029;-82
2022/08/13 10:15:41;;;;;;;17.15;13.50;;;;;;;21.87;100.00;97106.81;5025694;28;20037;-83
2022/08/13 10:18:08;;;;;;;17.83;14.32;;;;;;;21.77;100.00;97115.19;5024069;28;20037;-82
2022/08/13 10:20:39;;;;;;;12.95;11.32;;;;;;;21.31;100.00;97114.09;5027558;28;20029;-83
2022/08/13 10:23:10;;;;;;;13.90;11.00;;;;;;;21.10;100.00;97104.75;5020781;28;20029;-82
2022/08/13 10:25:39;;;;;;;13.95;10.57;;;;;;;20.94;100.00;97106.44;5038677;28;20021;-83
2022/08/13 10:28:20;;;;;;;14.88;11.23;;;;;;;20.63;100.00;97118.13;5016316;28;20029;-82
2022/08/13 10:30:46;;;;;;;16.08;12.25;;;;;;;20.35;100.00;97102.13;5043351;28;20510;-82
2022/08/13 10:33:13;;;;;;;22.00;15.00;;;;;;;20.35;100.00;97103.97;5023532;28;20024;-80
2022/08/13 10:35:51;;;;;;;18.63;12.52;;;;;;;20.31;100.00;97108.03;5042904;28;20031;-81
2022/08/13 10:38:18;;;;;;;19.23;13.48;;;;;;;20.32;100.00;97112.47;5022924;28;20510;-82
2022/08/13 10:40:44;;;;;;;19.23;14.57;;;;;;;20.30;100.00;97118.06;5033674;28;20035;-83
2022/08/13 10:43:10;;;;;;;20.65;11.98;;;;;;;20.10;100.00;97107.59;5041966;28;20045;-82
2022/08/13 10:45:37;;;;;;;18.98;13.52;;;;;;;20.11;100.00;97112.88;5029650;28;20025;-82
2022/08/13 10:48:09;;;;;;;19.45;13.90;;;;;;;20.22;100.00;97115.28;5028451;28;20025;-83
2022/08/13 10:50:35;;;;;;;21.75;15.40;;;;;;;20.23;100.00;97116.16;5034685;28;20051;-81
2022/08/13 10:53:00;;;;;;;18.52;14.43;;;;;;;20.31;100.00;97113.47;5019054;28;20070;-82
2022/08/13 10:55:27;;;;;;;24.75;16.80;;;;;;;20.34;100.00;97124.00;5015325;28;20443;-83
2022/08/13 10:57:53;;;;;;;20.30;15.00;;;;;;;20.38;100.00;97117.25;5017764;28;20144;-82
2022/08/13 11:00:22;;;;;;;22.20;15.77;;;;;;;20.42;100.00;97114.03;5029923;28;20791;-83
2022/08/13 11:02:50;;;;;;;22.73;14.85;;;;;;;20.52;100.00;97124.72;5027185;28;20097;-83
2022/08/13 11:05:20;;;;;;;15.82;13.45;;;;;;;20.49;100.00;97122.34;5035682;28;20148;-82
2022/08/13 11:07:45;;;;;;;18.17;14.35;;;;;;;20.56;100.00;97123.38;5026246;28;20025;-81
2022/08/13 11:10:12;;;;;;;17.42;14.13;;;;;;;20.72;100.00;97115.25;5023561;28;20026;-81
2022/08/13 11:12:38;;;;;;;22.45;15.48;;;;;;;20.84;100.00;97104.91;5026542;28;20068;-82
2022/08/13 11:15:07;;;;;;;18.48;14.50;;;;;;;20.88;100.00;97101.69;5009406;28;20116;-83
2022/08/13 11:17:33;;;;;;;22.58;16.88;;;;;;;20.95;100.00;97096.38;5033241;28;20025;-86
2022/08/13 11:20:13;;;;;;;17.95;12.98;;;;;;;21.06;100.00;97098.78;5040349;28;20044;-81
2022/08/13 11:22:39;;;;;;;14.43;11.40;;;;;;;21.12;100.00;97091.84;5016795;28;20033;-79
2022/08/13 11:25:05;;;;;;;15.43;11.95;;;;;;;21.17;100.00;97082.13;5011883;28;20047;-81
2022/08/13 11:27:34;;;;;;;14.93;11.98;;;;;;;21.25;100.00;97073.97;5035820;28;20013;-80
2022/08/13 11:29:59;;;;;;;18.15;14.18;;;;;;;21.49;100.00;97070.34;5050933;27;20041;-80
2022/08/13 11:32:25;;;;;;;22.70;15.55;;;;;;;21.97;100.00;97075.63;5042023;28;20507;-81
2022/08/13 11:34:50;;;;;;;16.80;13.00;;;;;;;22.49;100.00;97075.00;5025648;28;20034;-79
2022/08/13 11:37:16;;;;;;;15.82;12.98;;;;;;;22.97;100.00;97071.09;5028549;28;20086;-80
2022/08/13 11:39:41;;;;;;;16.83;12.70;;;;;;;23.43;100.00;97066.41;5027260;28;20045;-81
2022/08/13 11:42:07;;;;;;;20.13;11.20;;;;;;;24.01;100.00;97066.41;5025881;28;20534;-81
2022/08/13 11:44:33;;;;;;;16.58;12.30;;;;;;;24.59;100.00;97059.97;5022489;28;20037;-81
2022/08/13 11:46:58;;;;;;;16.48;12.82;;;;;;;25.35;100.00;97056.47;5044020;28;20056;-81